sensor_id;sensor_type;location;lat;lon;timestamp;pressure;altitude;pressure_sealevel;temperature;humidity
31044;BME280;17710;52.520;13.352;2023-02-04T00:01:05;101888.59;;;8.74;58.32
31044;BME280;17710;52.520;13.352;2023-02-04T00:03:31;101901.91;;;8.62;58.91
31044;BME280;17710;52.520;13.352;2023-02-04T00:05:58;101910.72;;;8.58;59.22
31044;BME280;17710;52.520;13.352;2023-02-04T00:08:25;101920.41;;;8.57;59.58
31044;BME280;17710;52.520;13.352;2023-02-04T00:10:52;101928.47;;;8.37;60.19
31044;BME280;17710;52.520;13.352;2023-02-04T00:13:18;101937.13;;;8.52;60.18
31044;BME280;17710;52.520;13.352;2023-02-04T00:15:44;101947.66;;;8.53;59.11
31044;BME280;17710;52.520;13.352;2023-02-04T00:18:11;101953.59;;;8.78;58.34
31044;BME280;17710;52.520;13.352;2023-02-04T00:20:37;101963.53;;;8.46;59.14
31044;BME280;17710;52.520;13.352;2023-02-04T00:23:04;101974.13;;;8.29;59.67
31044;BME280;17710;52.520;13.352;2023-02-04T00:25:31;101982.00;;;8.36;59.74
31044;BME280;17710;52.520;13.352;2023-02-04T00:27:58;101988.03;;;8.57;58.63
31044;BME280;17710;52.520;13.352;2023-02-04T00:30:27;101995.94;;;8.55;58.17
31044;BME280;17710;52.520;13.352;2023-02-04T00:32:54;101995.81;;;8.69;58.25
31044;BME280;17710;52.520;13.352;2023-02-04T00:35:21;102014.41;;;8.51;59.34
31044;BME280;17710;52.520;13.352;2023-02-04T00:37:48;102018.84;;;8.41;59.55
31044;BME280;17710;52.520;13.352;2023-02-04T00:40:14;102037.31;;;8.39;59.74
31044;BME280;17710;52.520;13.352;2023-02-04T00:42:42;102047.66;;;8.70;59.18
31044;BME280;17710;52.520;13.352;2023-02-04T00:45:09;102056.53;;;8.57;58.71
31044;BME280;17710;52.520;13.352;2023-02-04T00:47:36;102071.59;;;8.32;59.05
31044;BME280;17710;52.520;13.352;2023-02-04T00:50:04;102076.03;;;8.16;58.93
31044;BME280;17710;52.520;13.352;2023-02-04T00:52:30;102090.09;;;8.12;58.37
31044;BME280;17710;52.520;13.352;2023-02-04T00:54:57;102112.09;;;8.00;58.65
31044;BME280;17710;52.520;13.352;2023-02-04T00:57:23;102115.50;;;8.15;58.36
31044;BME280;17710;52.520;13.352;2023-02-04T00:59:51;102120.81;;;8.02;57.89
31044;BME280;17710;52.520;13.352;2023-02-04T01:02:18;102133.97;;;8.01;58.54
31044;BME280;17710;52.520;13.352;2023-02-04T01:04:44;102148.03;;;8.01;58.58
31044;BME280;17710;52.520;13.352;2023-02-04T01:07:10;102152.41;;;8.07;58.19
31044;BME280;17710;52.520;13.352;2023-02-04T01:09:37;102160.28;;;8.09;57.91
31044;BME280;17710;52.520;13.352;2023-02-04T01:12:03;102163.81;;;8.09;57.31
31044;BME280;17710;52.520;13.352;2023-02-04T01:14:30;102183.16;;;7.99;57.85
31044;BME280;17710;52.520;13.352;2023-02-04T01:16:58;102186.69;;;7.66;57.98
31044;BME280;17710;52.520;13.352;2023-02-04T01:19:24;102184.03;;;7.96;57.61
31044;BME280;17710;52.520;13.352;2023-02-04T01:21:50;102196.34;;;7.73;57.82
31044;BME280;17710;52.520;13.352;2023-02-04T01:24:17;102197.22;;;7.86;57.70
31044;BME280;17710;52.520;13.352;2023-02-04T01:26:43;102208.56;;;8.08;57.62
31044;BME280;17710;52.520;13.352;2023-02-04T01:29:10;102231.38;;;8.13;56.81
31044;BME280;17710;52.520;13.352;2023-02-04T01:31:36;102228.78;;;7.92;57.27
31044;BME280;17710;52.520;13.352;2023-02-04T01:34:04;102241.94;;;7.98;57.71
31044;BME280;17710;52.520;13.352;2023-02-04T01:36:31;102248.06;;;8.14;57.31
31044;BME280;17710;52.520;13.352;2023-02-04T01:38:58;102250.66;;;8.23;57.25
31044;BME280;17710;52.520;13.352;2023-02-04T01:41:25;102250.69;;;8.01;57.04
31044;BME280;17710;52.520;13.352;2023-02-04T01:43:52;102257.72;;;7.63;58.51
31044;BME280;17710;52.520;13.352;2023-02-04T01:46:19;102257.75;;;7.80;58.37
31044;BME280;17710;52.520;13.352;2023-02-04T01:48:45;102277.03;;;7.82;57.72
31044;BME280;17710;52.520;13.352;2023-02-04T01:51:14;102277.91;;;7.59;57.90
31044;BME280;17710;52.520;13.352;2023-02-04T01:53:42;102285.78;;;7.75;57.96
31044;BME280;17710;52.520;13.352;2023-02-04T01:56:15;102303.31;;;7.50;58.29
31044;BME280;17710;52.520;13.352;2023-02-04T01:58:42;102309.47;;;7.66;58.31
31044;BME280;17710;52.520;13.352;2023-02-04T02:01:15;102316.50;;;7.73;57.68
31044;BME280;17710;52.520;13.352;2023-02-04T02:03:56;102328.75;;;7.48;58.16
31044;BME280;17710;52.520;13.352;2023-02-04T02:06:24;102339.28;;;7.65;57.57
31044;BME280;17710;52.520;13.352;2023-02-04T02:08:51;102336.66;;;7.54;57.85
31044;BME280;17710;52.520;13.352;2023-02-04T02:11:18;102350.63;;;7.48;57.52
31044;BME280;17710;52.520;13.352;2023-02-04T02:13:44;102347.16;;;7.51;57.59
31044;BME280;17710;52.520;13.352;2023-02-04T02:16:11;102363.84;;;7.60;57.46
31044;BME280;17710;52.520;13.352;2023-02-04T02:18:37;102368.22;;;7.60;57.31
31044;BME280;17710;52.520;13.352;2023-02-04T02:21:06;102372.59;;;7.69;57.00
31044;BME280;17710;52.520;13.352;2023-02-04T02:23:45;102382.25;;;7.70;56.58
31044;BME280;17710;52.520;13.352;2023-02-04T02:26:13;102391.84;;;7.49;56.59
31044;BME280;17710;52.520;13.352;2023-02-04T02:28:40;102391.91;;;7.71;56.58
31044;BME280;17710;52.520;13.352;2023-02-04T02:31:07;102394.56;;;7.74;56.47
31044;BME280;17710;52.520;13.352;2023-02-04T02:33:34;102397.16;;;7.58;56.71
31044;BME280;17710;52.520;13.352;2023-02-04T02:36:01;102408.53;;;7.57;56.78
31044;BME280;17710;52.520;13.352;2023-02-04T02:38:27;102412.97;;;7.65;57.10
31044;BME280;17710;52.520;13.352;2023-02-04T02:40:55;102413.00;;;7.80;56.00
31044;BME280;17710;52.520;13.352;2023-02-04T02:43:23;102427.88;;;7.70;56.70
31044;BME280;17710;52.520;13.352;2023-02-04T02:45:50;102433.19;;;7.88;56.57
31044;BME280;17710;52.520;13.352;2023-02-04T02:48:18;102442.88;;;7.94;56.04
31044;BME280;17710;52.520;13.352;2023-02-04T02:50:48;102450.69;;;7.70;56.63
31044;BME280;17710;52.520;13.352;2023-02-04T02:53:16;102452.47;;;7.80;56.38
31044;BME280;17710;52.520;13.352;2023-02-04T02:55:44;102464.78;;;7.91;56.17
31044;BME280;17710;52.520;13.352;2023-02-04T02:58:15;102466.50;;;7.74;56.69
31044;BME280;17710;52.520;13.352;2023-02-04T03:00:42;102464.72;;;7.70;56.55
31044;BME280;17710;52.520;13.352;2023-02-04T03:03:12;102468.22;;;7.75;56.55
31044;BME280;17710;52.520;13.352;2023-02-04T03:05:44;102477.94;;;7.84;56.57
31044;BME280;17710;52.520;13.352;2023-02-04T03:08:13;102489.31;;;7.74;56.47
31044;BME280;17710;52.520;13.352;2023-02-04T03:10:40;102487.56;;;7.80;56.68
31044;BME280;17710;52.520;13.352;2023-02-04T03:13:08;102497.19;;;7.74;56.57
31044;BME280;17710;52.520;13.352;2023-02-04T03:15:37;102506.72;;;7.49;56.77
31044;BME280;17710;52.520;13.352;2023-02-04T03:18:04;102503.25;;;7.56;56.83
31044;BME280;17710;52.520;13.352;2023-02-04T03:20:31;102516.44;;;7.68;56.56
31044;BME280;17710;52.520;13.352;2023-02-04T03:22:58;102521.66;;;7.57;56.75
31044;BME280;17710;52.520;13.352;2023-02-04T03:25:25;102533.94;;;7.52;56.80
31044;BME280;17710;52.520;13.352;2023-02-04T03:27:53;102540.09;;;7.54;56.66
31044;BME280;17710;52.520;13.352;2023-02-04T03:30:20;102547.03;;;7.45;56.48
31044;BME280;17710;52.520;13.352;2023-02-04T03:32:49;102558.44;;;7.48;56.92
31044;BME280;17710;52.520;13.352;2023-02-04T03:35:15;102568.09;;;7.49;56.75
31044;BME280;17710;52.520;13.352;2023-02-04T03:37:42;102569.06;;;7.60;56.55
31044;BME280;17710;52.520;13.352;2023-02-04T03:40:10;102579.59;;;7.60;56.47
31044;BME280;17710;52.520;13.352;2023-02-04T03:42:37;102587.50;;;7.65;56.29
31044;BME280;17710;52.520;13.352;2023-02-04T03:45:03;102600.63;;;7.62;56.67
31044;BME280;17710;52.520;13.352;2023-02-04T03:47:30;102617.28;;;7.63;56.96
31044;BME280;17710;52.520;13.352;2023-02-04T03:49:58;102624.25;;;7.56;56.75
31044;BME280;17710;52.520;13.352;2023-02-04T03:52:24;102619.78;;;7.44;56.76
31044;BME280;17710;52.520;13.352;2023-02-04T03:54:50;102634.66;;;7.38;57.13
31044;BME280;17710;52.520;13.352;2023-02-04T03:57:17;102636.56;;;7.61;56.83
31044;BME280;17710;52.520;13.352;2023-02-04T03:59:43;102647.88;;;7.48;57.16
31044;BME280;17710;52.520;13.352;2023-02-04T04:02:10;102640.84;;;7.41;56.91
31044;BME280;17710;52.520;13.352;2023-02-04T04:04:36;102652.31;;;7.54;56.98
31044;BME280;17710;52.520;13.352;2023-02-04T04:07:04;102667.19;;;7.50;57.25
31044;BME280;17710;52.520;13.352;2023-02-04T04:09:31;102670.75;;;7.61;56.64
31044;BME280;17710;52.520;13.352;2023-02-04T04:11:57;102678.63;;;7.52;56.75
31044;BME280;17710;52.520;13.352;2023-02-04T04:14:24;102674.13;;;7.42;57.16
31044;BME280;17710;52.520;13.352;2023-02-04T04:16:50;102685.63;;;7.52;57.08
31044;BME280;17710;52.520;13.352;2023-02-04T04:19:16;102686.47;;;7.48;57.18
31044;BME280;17710;52.520;13.352;2023-02-04T04:21:43;102687.38;;;7.53;56.92
31044;BME280;17710;52.520;13.352;2023-02-04T04:24:10;102692.66;;;7.53;56.85
31044;BME280;17710;52.520;13.352;2023-02-04T04:26:37;102709.28;;;7.50;57.29
31044;BME280;17710;52.520;13.352;2023-02-04T04:29:03;102717.19;;;7.52;56.88
31044;BME280;17710;52.520;13.352;2023-02-04T04:31:30;102717.22;;;7.53;56.58
31044;BME280;17710;52.520;13.352;2023-02-04T04:33:56;102726.91;;;7.60;56.89
31044;BME280;17710;52.520;13.352;2023-02-04T04:36:22;102732.88;;;7.41;57.26
31044;BME280;17710;52.520;13.352;2023-02-04T04:38:49;102728.66;;;7.61;56.98
31044;BME280;17710;52.520;13.352;2023-02-04T04:41:17;102741.81;;;7.60;56.78
31044;BME280;17710;52.520;13.352;2023-02-04T04:43:43;102747.91;;;7.53;57.09
31044;BME280;17710;52.520;13.352;2023-02-04T04:46:09;102749.69;;;7.61;56.84
31044;BME280;17710;52.520;13.352;2023-02-04T04:48:36;102756.53;;;7.40;57.21
31044;BME280;17710;52.520;13.352;2023-02-04T04:51:03;102776.66;;;7.36;57.69
31044;BME280;17710;52.520;13.352;2023-02-04T04:53:30;102776.56;;;7.29;57.81
31044;BME280;17710;52.520;13.352;2023-02-04T04:55:56;102786.03;;;7.10;58.25
31044;BME280;17710;52.520;13.352;2023-02-04T04:58:24;102786.03;;;7.08;58.58
31044;BME280;17710;52.520;13.352;2023-02-04T05:00:50;102796.59;;;7.16;58.44
31044;BME280;17710;52.520;13.352;2023-02-04T05:03:17;102801.91;;;7.19;58.26
31044;BME280;17710;52.520;13.352;2023-02-04T05:05:43;102817.63;;;7.13;58.14
31044;BME280;17710;52.520;13.352;2023-02-04T05:08:10;102817.28;;;6.86;58.85
31044;BME280;17710;52.520;13.352;2023-02-04T05:10:41;102821.91;;;7.05;59.11
31044;BME280;17710;52.520;13.352;2023-02-04T05:13:08;102830.63;;;7.01;59.08
31044;BME280;17710;52.520;13.352;2023-02-04T05:15:36;102822.81;;;7.07;58.95
31044;BME280;17710;52.520;13.352;2023-02-04T05:18:02;102823.63;;;7.04;58.97
31044;BME280;17710;52.520;13.352;2023-02-04T05:20:29;102836.75;;;7.03;58.95
31044;BME280;17710;52.520;13.352;2023-02-04T05:22:56;102838.66;;;7.13;58.62
31044;BME280;17710;52.520;13.352;2023-02-04T05:25:25;102848.22;;;7.08;58.95
31044;BME280;17710;52.520;13.352;2023-02-04T05:27:52;102850.81;;;7.05;58.58
31044;BME280;17710;52.520;13.352;2023-02-04T05:30:18;102859.63;;;7.10;58.82
31044;BME280;17710;52.520;13.352;2023-02-04T05:32:46;102870.09;;;7.05;58.94
31044;BME280;17710;52.520;13.352;2023-02-04T05:35:12;102864.84;;;7.05;58.60
31044;BME280;17710;52.520;13.352;2023-02-04T05:37:39;102878.59;;;6.85;59.35
31044;BME280;17710;52.520;13.352;2023-02-04T05:40:06;102892.16;;;7.15;58.50
31044;BME280;17710;52.520;13.352;2023-02-04T05:42:33;102886.84;;;7.13;58.37
31044;BME280;17710;52.520;13.352;2023-02-04T05:44:59;102892.13;;;7.16;58.64
31044;BME280;17710;52.520;13.352;2023-02-04T05:47:25;102896.34;;;7.01;58.58
31044;BME280;17710;52.520;13.352;2023-02-04T05:49:53;102910.81;;;6.71;59.45
31044;BME280;17710;52.520;13.352;2023-02-04T05:52:20;102909.69;;;6.57;59.87
31044;BME280;17710;52.520;13.352;2023-02-04T05:54:46;102921.34;;;6.73;59.74
31044;BME280;17710;52.520;13.352;2023-02-04T05:57:13;102918.78;;;6.77;59.40
31044;BME280;17710;52.520;13.352;2023-02-04T05:59:39;102924.03;;;6.77;59.52
31044;BME280;17710;52.520;13.352;2023-02-04T06:02:05;102926.81;;;6.88;59.10
31044;BME280;17710;52.520;13.352;2023-02-04T06:04:32;102928.34;;;6.72;59.72
31044;BME280;17710;52.520;13.352;2023-02-04T06:06:59;102945.56;;;6.54;60.26
31044;BME280;17710;52.520;13.352;2023-02-04T06:09:27;102943.09;;;6.64;60.13
31044;BME280;17710;52.520;13.352;2023-02-04T06:11:54;102966.06;;;6.76;59.64
31044;BME280;17710;52.520;13.352;2023-02-04T06:14:21;102969.41;;;6.66;59.65
31044;BME280;17710;52.520;13.352;2023-02-04T06:16:48;102976.63;;;6.80;59.44
31044;BME280;17710;52.520;13.352;2023-02-04T06:19:14;102977.66;;;6.90;59.31
31044;BME280;17710;52.520;13.352;2023-02-04T06:21:40;102982.56;;;6.67;59.66
31044;BME280;17710;52.520;13.352;2023-02-04T06:24:08;102980.19;;;6.83;59.36
31044;BME280;17710;52.520;13.352;2023-02-04T06:26:35;102985.38;;;6.79;59.37
31044;BME280;17710;52.520;13.352;2023-02-04T06:29:01;102981.03;;;6.83;59.29
31044;BME280;17710;52.520;13.352;2023-02-04T06:31:28;102993.34;;;6.33;60.72
31044;BME280;17710;52.520;13.352;2023-02-04T06:33:54;102992.91;;;6.58;60.24
31044;BME280;17710;52.520;13.352;2023-02-04T06:36:20;102995.78;;;6.73;60.09
31044;BME280;17710;52.520;13.352;2023-02-04T06:38:47;103005.03;;;6.50;59.79
31044;BME280;17710;52.520;13.352;2023-02-04T06:41:14;103009.53;;;6.56;60.34
31044;BME280;17710;52.520;13.352;2023-02-04T06:43:41;103007.31;;;6.83;59.54
31044;BME280;17710;52.520;13.352;2023-02-04T06:46:07;103010.56;;;6.67;59.66
31044;BME280;17710;52.520;13.352;2023-02-04T06:48:33;103011.47;;;6.67;59.74
31044;BME280;17710;52.520;13.352;2023-02-04T06:51:00;103016.81;;;6.73;59.64
31044;BME280;17710;52.520;13.352;2023-02-04T06:53:26;103008.03;;;6.73;59.97
31044;BME280;17710;52.520;13.352;2023-02-04T06:55:53;103002.69;;;6.67;60.14
31044;BME280;17710;52.520;13.352;2023-02-04T06:58:20;103007.28;;;6.80;59.62
31044;BME280;17710;52.520;13.352;2023-02-04T07:00:47;103005.50;;;6.79;59.73
31044;BME280;17710;52.520;13.352;2023-02-04T07:03:14;103007.22;;;6.75;60.21
31044;BME280;17710;52.520;13.352;2023-02-04T07:05:40;103014.00;;;6.61;60.06
31044;BME280;17710;52.520;13.352;2023-02-04T07:08:06;103013.38;;;6.77;60.00
31044;BME280;17710;52.520;13.352;2023-02-04T07:10:33;103018.53;;;6.71;60.12
31044;BME280;17710;52.520;13.352;2023-02-04T07:12:59;103012.81;;;6.98;59.41
31044;BME280;17710;52.520;13.352;2023-02-04T07:15:27;103016.31;;;6.97;59.02
31044;BME280;17710;52.520;13.352;2023-02-04T07:17:53;103022.19;;;6.81;59.63
31044;BME280;17710;52.520;13.352;2023-02-04T07:20:20;103019.63;;;6.86;59.80
31044;BME280;17710;52.520;13.352;2023-02-04T07:22:46;103039.00;;;6.92;59.60
31044;BME280;17710;52.520;13.352;2023-02-04T07:25:13;103038.41;;;7.08;59.24
31044;BME280;17710;52.520;13.352;2023-02-04T07:27:42;103046.06;;;6.96;59.50
31044;BME280;17710;52.520;13.352;2023-02-04T07:30:10;103048.16;;;7.17;58.86
31044;BME280;17710;52.520;13.352;2023-02-04T07:32:38;103049.09;;;7.22;58.73
31044;BME280;17710;52.520;13.352;2023-02-04T07:35:05;103068.16;;;7.06;59.05
31044;BME280;17710;52.520;13.352;2023-02-04T07:37:31;103064.53;;;6.99;59.14
31044;BME280;17710;52.520;13.352;2023-02-04T07:39:58;103076.97;;;7.08;58.96
31044;BME280;17710;52.520;13.352;2023-02-04T07:42:24;103077.94;;;7.14;58.80
31044;BME280;17710;52.520;13.352;2023-02-04T07:44:51;103080.88;;;7.34;58.18
31044;BME280;17710;52.520;13.352;2023-02-04T07:47:17;103088.88;;;7.43;57.83
31044;BME280;17710;52.520;13.352;2023-02-04T07:49:45;103094.97;;;7.39;58.19
31044;BME280;17710;52.520;13.352;2023-02-04T07:52:11;103095.69;;;7.31;57.94
31044;BME280;17710;52.520;13.352;2023-02-04T07:54:37;103096.75;;;7.43;57.99
31044;BME280;17710;52.520;13.352;2023-02-04T07:57:04;103100.09;;;7.32;58.17
31044;BME280;17710;52.520;13.352;2023-02-04T07:59:30;103113.88;;;7.17;58.38
31044;BME280;17710;52.520;13.352;2023-02-04T08:01:57;103122.31;;;6.95;59.02
31044;BME280;17710;52.520;13.352;2023-02-04T08:04:23;103123.56;;;7.18;59.02
31044;BME280;17710;52.520;13.352;2023-02-04T08:06:51;103122.94;;;7.34;58.33
31044;BME280;17710;52.520;13.352;2023-02-04T08:09:17;103126.66;;;7.48;58.17
31044;BME280;17710;52.520;13.352;2023-02-04T08:11:44;103137.22;;;7.51;57.94
31044;BME280;17710;52.520;13.352;2023-02-04T08:14:10;103135.47;;;7.50;57.39
31044;BME280;17710;52.520;13.352;2023-02-04T08:16:38;103142.03;;;7.80;57.42
31044;BME280;17710;52.520;13.352;2023-02-04T08:19:04;103134.22;;;7.86;56.91
31044;BME280;17710;52.520;13.352;2023-02-04T08:21:31;103145.38;;;7.70;57.22
31044;BME280;17710;52.520;13.352;2023-02-04T08:23:59;103159.31;;;7.61;57.36
31044;BME280;17710;52.520;13.352;2023-02-04T08:26:25;103155.19;;;7.81;57.07
31044;BME280;17710;52.520;13.352;2023-02-04T08:28:51;103169.06;;;7.70;57.18
31044;BME280;17710;52.520;13.352;2023-02-04T08:31:18;103158.75;;;7.83;56.60
31044;BME280;17710;52.520;13.352;2023-02-04T08:33:44;103172.84;;;7.87;56.84
31044;BME280;17710;52.520;13.352;2023-02-04T08:36:11;103169.56;;;8.05;56.28
31044;BME280;17710;52.520;13.352;2023-02-04T08:38:40;103166.97;;;8.06;56.20
31044;BME280;17710;52.520;13.352;2023-02-04T08:41:10;103169.47;;;7.97;56.00
31044;BME280;17710;52.520;13.352;2023-02-04T08:43:36;103176.00;;;7.63;56.48
31044;BME280;17710;52.520;13.352;2023-02-04T08:46:04;103176.19;;;7.74;56.66
31044;BME280;17710;52.520;13.352;2023-02-04T08:48:30;103178.38;;;8.05;55.80
31044;BME280;17710;52.520;13.352;2023-02-04T08:50:57;103174.16;;;8.21;55.44
31044;BME280;17710;52.520;13.352;2023-02-04T08:53:23;103177.97;;;8.39;54.76
31044;BME280;17710;52.520;13.352;2023-02-04T08:55:50;103184.81;;;8.30;55.05
31044;BME280;17710;52.520;13.352;2023-02-04T08:58:18;103186.75;;;8.38;54.57
31044;BME280;17710;52.520;13.352;2023-02-04T09:00:44;103192.13;;;8.49;54.68
31044;BME280;17710;52.520;13.352;2023-02-04T09:03:10;103186.28;;;8.08;54.42
31044;BME280;17710;52.520;13.352;2023-02-04T09:05:37;103188.50;;;8.39;54.71
31044;BME280;17710;52.520;13.352;2023-02-04T09:08:03;103191.16;;;8.39;54.27
31044;BME280;17710;52.520;13.352;2023-02-04T09:10:30;103194.81;;;8.54;53.57
31044;BME280;17710;52.520;13.352;2023-02-04T09:12:57;103195.69;;;8.53;52.95
31044;BME280;17710;52.520;13.352;2023-02-04T09:15:25;103205.91;;;8.30;53.94
31044;BME280;17710;52.520;13.352;2023-02-04T09:17:52;103207.91;;;8.46;53.88
31044;BME280;17710;52.520;13.352;2023-02-04T09:20:25;103209.06;;;8.69;53.07
31044;BME280;17710;52.520;13.352;2023-02-04T09:22:53;103214.09;;;8.50;53.50
31044;BME280;17710;52.520;13.352;2023-02-04T09:25:19;103211.59;;;8.62;53.31
31044;BME280;17710;52.520;13.352;2023-02-04T09:27:46;103219.72;;;8.78;52.80
31044;BME280;17710;52.520;13.352;2023-02-04T09:30:13;103227.72;;;8.89;52.41
31044;BME280;17710;52.520;13.352;2023-02-04T09:32:40;103237.41;;;8.90;52.32
31044;BME280;17710;52.520;13.352;2023-02-04T09:35:07;103241.25;;;9.23;51.77
31044;BME280;17710;52.520;13.352;2023-02-04T09:37:33;103239.69;;;9.46;51.18
31044;BME280;17710;52.520;13.352;2023-02-04T09:40:00;103244.88;;;9.35;50.82
31044;BME280;17710;52.520;13.352;2023-02-04T09:42:29;103245.03;;;9.50;51.74
31044;BME280;17710;52.520;13.352;2023-02-04T09:44:56;103253.03;;;9.58;50.95
31044;BME280;17710;52.520;13.352;2023-02-04T09:47:24;103245.09;;;9.58;50.38
31044;BME280;17710;52.520;13.352;2023-02-04T09:49:52;103263.44;;;9.46;50.18
31044;BME280;17710;52.520;13.352;2023-02-04T09:52:19;103258.34;;;9.66;50.34
31044;BME280;17710;52.520;13.352;2023-02-04T09:54:48;103254.88;;;9.70;49.21
31044;BME280;17710;52.520;13.352;2023-02-04T09:57:17;103257.66;;;9.89;49.33
31044;BME280;17710;52.520;13.352;2023-02-04T09:59:47;103262.03;;;9.84;48.51
31044;BME280;17710;52.520;13.352;2023-02-04T10:02:20;103262.97;;;9.91;48.10
31044;BME280;17710;52.520;13.352;2023-02-04T10:04:48;103260.19;;;9.79;47.80
31044;BME280;17710;52.520;13.352;2023-02-04T10:07:17;103267.19;;;9.69;48.07
31044;BME280;17710;52.520;13.352;2023-02-04T10:09:49;103268.16;;;9.80;47.89
31044;BME280;17710;52.520;13.352;2023-02-04T10:12:17;103265.47;;;9.74;48.00
31044;BME280;17710;52.520;13.352;2023-02-04T10:14:43;103263.72;;;9.79;46.91
31044;BME280;17710;52.520;13.352;2023-02-04T10:17:19;103266.41;;;9.85;46.95
31044;BME280;17710;52.520;13.352;2023-02-04T10:19:47;103270.03;;;9.96;46.74
31044;BME280;17710;52.520;13.352;2023-02-04T10:22:17;103263.78;;;9.85;46.63
31044;BME280;17710;52.520;13.352;2023-02-04T10:24:44;103259.41;;;9.87;46.38
31044;BME280;17710;52.520;13.352;2023-02-04T10:27:12;103262.72;;;9.60;46.53
31044;BME280;17710;52.520;13.352;2023-02-04T10:29:40;103269.72;;;9.57;46.83
31044;BME280;17710;52.520;13.352;2023-02-04T10:32:26;103273.34;;;9.68;47.04
31044;BME280;17710;52.520;13.352;2023-02-04T10:34:58;103270.81;;;9.86;46.54
31044;BME280;17710;52.520;13.352;2023-02-04T10:37:26;103270.94;;;10.00;46.11
31044;BME280;17710;52.520;13.352;2023-02-04T10:39:53;103278.88;;;10.02;46.16
31044;BME280;17710;52.520;13.352;2023-02-04T10:42:22;103279.94;;;10.23;45.33
31044;BME280;17710;52.520;13.352;2023-02-04T10:44:49;103273.84;;;10.36;45.03
31044;BME280;17710;52.520;13.352;2023-02-04T10:47:17;103283.63;;;10.56;43.83
31044;BME280;17710;52.520;13.352;2023-02-04T10:49:51;103281.88;;;10.59;42.88
31044;BME280;17710;52.520;13.352;2023-02-04T10:52:20;103279.97;;;10.28;43.68
31044;BME280;17710;52.520;13.352;2023-02-04T10:54:48;103280.81;;;10.27;43.44
31044;BME280;17710;52.520;13.352;2023-02-04T10:57:17;103276.50;;;10.39;42.55
31044;BME280;17710;52.520;13.352;2023-02-04T10:59:45;103284.41;;;10.35;41.99
31044;BME280;17710;52.520;13.352;2023-02-04T11:02:31;103280.16;;;10.67;42.19
31044;BME280;17710;52.520;13.352;2023-02-04T11:04:58;103283.75;;;10.88;41.95
31044;BME280;17710;52.520;13.352;2023-02-04T11:07:25;103287.28;;;10.91;41.15
31044;BME280;17710;52.520;13.352;2023-02-04T11:09:53;103286.38;;;10.85;41.64
31044;BME280;17710;52.520;13.352;2023-02-04T11:12:20;103282.03;;;10.94;41.47
31044;BME280;17710;52.520;13.352;2023-02-04T11:14:54;103298.72;;;10.81;41.10
31044;BME280;17710;52.520;13.352;2023-02-04T11:17:20;103290.81;;;10.83;41.42
31044;BME280;17710;52.520;13.352;2023-02-04T11:19:47;103291.53;;;10.53;42.09
31044;BME280;17710;52.520;13.352;2023-02-04T11:22:22;103288.81;;;10.39;41.97
31044;BME280;17710;52.520;13.352;2023-02-04T11:24:50;103294.13;;;10.42;42.23
31044;BME280;17710;52.520;13.352;2023-02-04T11:27:23;103292.19;;;10.15;42.29
31044;BME280;17710;52.520;13.352;2023-02-04T11:29:51;103306.16;;;10.00;42.41
31044;BME280;17710;52.520;13.352;2023-02-04T11:32:31;103303.44;;;9.88;42.51
31044;BME280;17710;52.520;13.352;2023-02-04T11:35:20;103311.38;;;9.90;42.25
31044;BME280;17710;52.520;13.352;2023-02-04T11:37:47;103308.94;;;10.19;41.99
31044;BME280;17710;52.520;13.352;2023-02-04T11:40:24;103315.09;;;10.16;42.08
31044;BME280;17710;52.520;13.352;2023-02-04T11:42:57;103318.53;;;10.06;41.98
31044;BME280;17710;52.520;13.352;2023-02-04T11:45:27;103327.03;;;9.70;41.57
31044;BME280;17710;52.520;13.352;2023-02-04T11:47:56;103328.00;;;8.95;42.09
31044;BME280;17710;52.520;13.352;2023-02-04T11:50:26;103327.28;;;9.08;41.76
31044;BME280;17710;52.520;13.352;2023-02-04T11:52:55;103336.13;;;9.15;42.13
31044;BME280;17710;52.520;13.352;2023-02-04T11:55:21;103337.97;;;9.20;42.15
31044;BME280;17710;52.520;13.352;2023-02-04T11:57:50;103329.91;;;9.05;42.59
31044;BME280;17710;52.520;13.352;2023-02-04T12:00:21;103333.69;;;9.33;42.57
31044;BME280;17710;52.520;13.352;2023-02-04T12:02:49;103333.13;;;9.63;42.49
31044;BME280;17710;52.520;13.352;2023-02-04T12:05:17;103332.50;;;9.90;41.46
31044;BME280;17710;52.520;13.352;2023-02-04T12:07:45;103328.28;;;10.15;40.83
31044;BME280;17710;52.520;13.352;2023-02-04T12:10:21;103316.88;;;10.19;39.04
31044;BME280;17710;52.520;13.352;2023-02-04T12:12:51;103324.47;;;9.76;40.96
31044;BME280;17710;52.520;13.352;2023-02-04T12:15:22;103320.06;;;9.80;40.64
31044;BME280;17710;52.520;13.352;2023-02-04T12:17:59;103326.19;;;9.71;40.46
31044;BME280;17710;52.520;13.352;2023-02-04T12:20:26;103330.69;;;9.86;40.75
31044;BME280;17710;52.520;13.352;2023-02-04T12:22:52;103332.41;;;9.81;40.66
31044;BME280;17710;52.520;13.352;2023-02-04T12:25:19;103331.31;;;9.57;40.50
31044;BME280;17710;52.520;13.352;2023-02-04T12:27:45;103333.53;;;9.19;40.27
31044;BME280;17710;52.520;13.352;2023-02-04T12:30:12;103337.00;;;9.14;40.75
31044;BME280;17710;52.520;13.352;2023-02-04T12:32:40;103332.00;;;9.40;40.24
31044;BME280;17710;52.520;13.352;2023-02-04T12:35:06;103339.69;;;9.17;40.49
31044;BME280;17710;52.520;13.352;2023-02-04T12:37:33;103341.75;;;9.47;39.46
31044;BME280;17710;52.520;13.352;2023-02-04T12:39:59;103341.84;;;9.51;39.35
31044;BME280;17710;52.520;13.352;2023-02-04T12:42:25;103345.47;;;9.67;39.40
31044;BME280;17710;52.520;13.352;2023-02-04T12:44:52;103344.84;;;9.91;37.60
31044;BME280;17710;52.520;13.352;2023-02-04T12:47:18;103338.75;;;10.06;37.03
31044;BME280;17710;52.520;13.352;2023-02-04T12:49:46;103334.53;;;10.21;37.70
31044;BME280;17710;52.520;13.352;2023-02-04T12:52:12;103348.72;;;10.38;37.42